sensor_id;sensor_type;location;lat;lon;timestamp;P1;durP1;ratioP1;P2;durP2;ratioP2
6665;SDS011;3369;49.906;8.598;2023-04-24T00:00:07;2.47;;;1.50;;
6665;SDS011;3369;49.906;8.598;2023-04-24T00:02:34;1.93;;;1.33;;
6665;SDS011;3369;49.906;8.598;2023-04-24T00:05:03;1.47;;;1.33;;
6665;SDS011;3369;49.906;8.598;2023-04-24T00:07:30;1.37;;;1.20;;
6665;SDS011;3369;49.906;8.598;2023-04-24T00:09:56;1.17;;;1.10;;
6665;SDS011;3369;49.906;8.598;2023-04-24T00:12:21;1.50;;;1.37;;
6665;SDS011;3369;49.906;8.598;2023-04-24T00:14:47;1.83;;;1.10;;
6665;SDS011;3369;49.906;8.598;2023-04-24T00:17:13;1.20;;;1.10;;
6665;SDS011;3369;49.906;8.598;2023-04-24T00:19:38;2.13;;;1.50;;
6665;SDS011;3369;49.906;8.598;2023-04-24T00:22:04;1.00;;;0.90;;
6665;SDS011;3369;49.906;8.598;2023-04-24T00:24:30;2.97;;;1.70;;
6665;SDS011;3369;49.906;8.598;2023-04-24T00:26:56;1.70;;;1.10;;
6665;SDS011;3369;49.906;8.598;2023-04-24T00:29:21;1.20;;;1.10;;
6665;SDS011;3369;49.906;8.598;2023-04-24T00:31:47;2.33;;;1.07;;
6665;SDS011;3369;49.906;8.598;2023-04-24T00:34:13;1.37;;;1.10;;
6665;SDS011;3369;49.906;8.598;2023-04-24T00:36:38;1.90;;;1.43;;
6665;SDS011;3369;49.906;8.598;2023-04-24T00:39:05;2.00;;;1.00;;
6665;SDS011;3369;49.906;8.598;2023-04-24T00:41:33;1.13;;;1.10;;
6665;SDS011;3369;49.906;8.598;2023-04-24T00:44:00;1.73;;;1.30;;
6665;SDS011;3369;49.906;8.598;2023-04-24T00:46:25;2.07;;;1.20;;
6665;SDS011;3369;49.906;8.598;2023-04-24T00:48:51;1.20;;;0.97;;
6665;SDS011;3369;49.906;8.598;2023-04-24T00:51:17;2.93;;;1.40;;
6665;SDS011;3369;49.906;8.598;2023-04-24T00:53:43;1.50;;;1.10;;
6665;SDS011;3369;49.906;8.598;2023-04-24T00:56:09;1.73;;;1.23;;
6665;SDS011;3369;49.906;8.598;2023-04-24T00:58:35;4.53;;;1.27;;
6665;SDS011;3369;49.906;8.598;2023-04-24T01:01:00;2.27;;;1.80;;
6665;SDS011;3369;49.906;8.598;2023-04-24T01:03:28;2.20;;;1.10;;
6665;SDS011;3369;49.906;8.598;2023-04-24T01:05:56;1.50;;;1.20;;
6665;SDS011;3369;49.906;8.598;2023-04-24T01:29:05;1.27;;;1.17;;
6665;SDS011;3369;49.906;8.598;2023-04-24T01:31:31;1.63;;;1.50;;
6665;SDS011;3369;49.906;8.598;2023-04-24T01:33:58;2.00;;;1.30;;
6665;SDS011;3369;49.906;8.598;2023-04-24T01:36:23;3.40;;;1.40;;
6665;SDS011;3369;49.906;8.598;2023-04-24T01:38:51;1.20;;;1.10;;
6665;SDS011;3369;49.906;8.598;2023-04-24T01:41:16;1.50;;;1.40;;
6665;SDS011;3369;49.906;8.598;2023-04-24T01:43:42;2.80;;;1.40;;
6665;SDS011;3369;49.906;8.598;2023-04-24T01:46:08;1.63;;;1.40;;
6665;SDS011;3369;49.906;8.598;2023-04-24T01:48:34;1.93;;;1.63;;
6665;SDS011;3369;49.906;8.598;2023-04-24T01:51:00;2.97;;;1.50;;
6665;SDS011;3369;49.906;8.598;2023-04-24T01:53:25;1.87;;;1.10;;
6665;SDS011;3369;49.906;8.598;2023-04-24T01:55:51;1.40;;;1.30;;
6665;SDS011;3369;49.906;8.598;2023-04-24T01:58:17;3.90;;;1.40;;
6665;SDS011;3369;49.906;8.598;2023-04-24T02:00:43;3.03;;;1.13;;
6665;SDS011;3369;49.906;8.598;2023-04-24T02:03:08;1.70;;;1.10;;
6665;SDS011;3369;49.906;8.598;2023-04-24T02:05:34;1.60;;;1.50;;
6665;SDS011;3369;49.906;8.598;2023-04-24T02:07:59;3.00;;;1.43;;
6665;SDS011;3369;49.906;8.598;2023-04-24T02:10:25;2.30;;;1.50;;
6665;SDS011;3369;49.906;8.598;2023-04-24T02:12:51;2.97;;;1.63;;
6665;SDS011;3369;49.906;8.598;2023-04-24T02:15:17;5.87;;;1.20;;
6665;SDS011;3369;49.906;8.598;2023-04-24T02:17:43;1.87;;;1.20;;
6665;SDS011;3369;49.906;8.598;2023-04-24T02:20:08;3.17;;;1.57;;
6665;SDS011;3369;49.906;8.598;2023-04-24T02:22:34;1.50;;;1.27;;
6665;SDS011;3369;49.906;8.598;2023-04-24T02:25:00;1.77;;;1.20;;
6665;SDS011;3369;49.906;8.598;2023-04-24T02:27:25;1.83;;;1.50;;
6665;SDS011;3369;49.906;8.598;2023-04-24T02:29:51;1.77;;;1.20;;
6665;SDS011;3369;49.906;8.598;2023-04-24T02:32:16;1.80;;;1.17;;
6665;SDS011;3369;49.906;8.598;2023-04-24T02:34:42;3.67;;;1.20;;
6665;SDS011;3369;49.906;8.598;2023-04-24T02:37:08;1.10;;;1.10;;
6665;SDS011;3369;49.906;8.598;2023-04-24T02:39:33;1.40;;;1.30;;
6665;SDS011;3369;49.906;8.598;2023-04-24T02:41:59;4.07;;;1.67;;
6665;SDS011;3369;49.906;8.598;2023-04-24T02:44:25;2.10;;;1.50;;
6665;SDS011;3369;49.906;8.598;2023-04-24T02:46:50;4.70;;;1.83;;
6665;SDS011;3369;49.906;8.598;2023-04-24T02:49:16;2.23;;;1.40;;
6665;SDS011;3369;49.906;8.598;2023-04-24T02:51:41;5.60;;;1.73;;
6665;SDS011;3369;49.906;8.598;2023-04-24T02:54:08;3.57;;;1.40;;
6665;SDS011;3369;49.906;8.598;2023-04-24T02:56:34;4.27;;;1.90;;
6665;SDS011;3369;49.906;8.598;2023-04-24T02:59:00;2.57;;;1.67;;
6665;SDS011;3369;49.906;8.598;2023-04-24T03:01:26;3.23;;;1.53;;
6665;SDS011;3369;49.906;8.598;2023-04-24T03:03:52;1.97;;;1.50;;
6665;SDS011;3369;49.906;8.598;2023-04-24T03:06:17;2.20;;;1.53;;
6665;SDS011;3369;49.906;8.598;2023-04-24T03:08:43;1.40;;;1.30;;
6665;SDS011;3369;49.906;8.598;2023-04-24T03:11:08;2.20;;;1.50;;
6665;SDS011;3369;49.906;8.598;2023-04-24T03:13:34;9.20;;;1.60;;
6665;SDS011;3369;49.906;8.598;2023-04-24T03:16:00;3.10;;;1.60;;
6665;SDS011;3369;49.906;8.598;2023-04-24T03:18:25;2.63;;;1.40;;
6665;SDS011;3369;49.906;8.598;2023-04-24T03:20:51;6.43;;;1.40;;
6665;SDS011;3369;49.906;8.598;2023-04-24T03:23:17;1.63;;;1.33;;
6665;SDS011;3369;49.906;8.598;2023-04-24T03:25:42;3.90;;;1.53;;
6665;SDS011;3369;49.906;8.598;2023-04-24T03:28:08;3.53;;;1.53;;
6665;SDS011;3369;49.906;8.598;2023-04-24T03:30:33;1.27;;;1.17;;
6665;SDS011;3369;49.906;8.598;2023-04-24T03:32:59;1.40;;;1.30;;
6665;SDS011;3369;49.906;8.598;2023-04-24T03:35:25;1.73;;;1.40;;
6665;SDS011;3369;49.906;8.598;2023-04-24T03:37:51;1.60;;;1.50;;
6665;SDS011;3369;49.906;8.598;2023-04-24T03:40:16;1.60;;;1.30;;
6665;SDS011;3369;49.906;8.598;2023-04-24T03:42:42;2.10;;;1.30;;
6665;SDS011;3369;49.906;8.598;2023-04-24T03:45:08;2.43;;;1.47;;
6665;SDS011;3369;49.906;8.598;2023-04-24T03:47:34;3.77;;;1.70;;
6665;SDS011;3369;49.906;8.598;2023-04-24T03:50:00;1.20;;;1.20;;
6665;SDS011;3369;49.906;8.598;2023-04-24T03:52:25;2.77;;;1.50;;
6665;SDS011;3369;49.906;8.598;2023-04-24T03:54:51;1.40;;;1.30;;
6665;SDS011;3369;49.906;8.598;2023-04-24T03:57:16;3.40;;;1.40;;
6665;SDS011;3369;49.906;8.598;2023-04-24T03:59:42;1.57;;;1.47;;
6665;SDS011;3369;49.906;8.598;2023-04-24T04:02:08;1.60;;;1.30;;
6665;SDS011;3369;49.906;8.598;2023-04-24T04:04:33;1.70;;;1.30;;
6665;SDS011;3369;49.906;8.598;2023-04-24T04:06:59;1.40;;;1.30;;
6665;SDS011;3369;49.906;8.598;2023-04-24T04:09:26;2.27;;;1.50;;
6665;SDS011;3369;49.906;8.598;2023-04-24T04:11:52;1.23;;;1.20;;
6665;SDS011;3369;49.906;8.598;2023-04-24T04:14:18;1.60;;;1.50;;
6665;SDS011;3369;49.906;8.598;2023-04-24T04:16:44;1.40;;;1.30;;
6665;SDS011;3369;49.906;8.598;2023-04-24T04:19:09;2.93;;;1.63;;
6665;SDS011;3369;49.906;8.598;2023-04-24T04:21:35;1.90;;;1.50;;
6665;SDS011;3369;49.906;8.598;2023-04-24T04:24:00;1.90;;;1.57;;
6665;SDS011;3369;49.906;8.598;2023-04-24T04:26:26;1.83;;;1.70;;
6665;SDS011;3369;49.906;8.598;2023-04-24T04:28:52;2.10;;;1.90;;
6665;SDS011;3369;49.906;8.598;2023-04-24T04:31:19;1.57;;;1.47;;
6665;SDS011;3369;49.906;8.598;2023-04-24T04:33:45;1.93;;;1.83;;
6665;SDS011;3369;49.906;8.598;2023-04-24T04:36:11;1.60;;;1.50;;
6665;SDS011;3369;49.906;8.598;2023-04-24T04:38:37;2.50;;;1.70;;
6665;SDS011;3369;49.906;8.598;2023-04-24T04:41:02;4.50;;;1.70;;
6665;SDS011;3369;49.906;8.598;2023-04-24T04:43:28;2.83;;;1.53;;
6665;SDS011;3369;49.906;8.598;2023-04-24T04:45:55;2.93;;;1.97;;
6665;SDS011;3369;49.906;8.598;2023-04-24T04:48:22;2.00;;;1.43;;
6665;SDS011;3369;49.906;8.598;2023-04-24T04:50:48;2.30;;;2.10;;
6665;SDS011;3369;49.906;8.598;2023-04-24T04:53:13;2.07;;;1.70;;
6665;SDS011;3369;49.906;8.598;2023-04-24T04:55:39;1.93;;;1.83;;
6665;SDS011;3369;49.906;8.598;2023-04-24T04:58:05;1.97;;;1.60;;
6665;SDS011;3369;49.906;8.598;2023-04-24T05:00:31;2.00;;;1.90;;
6665;SDS011;3369;49.906;8.598;2023-04-24T05:03:00;2.17;;;1.97;;
6665;SDS011;3369;49.906;8.598;2023-04-24T05:05:26;2.10;;;1.90;;
6665;SDS011;3369;49.906;8.598;2023-04-24T05:07:52;3.43;;;2.73;;
6665;SDS011;3369;49.906;8.598;2023-04-24T05:10:18;2.10;;;1.90;;
6665;SDS011;3369;49.906;8.598;2023-04-24T05:12:44;2.30;;;2.07;;
6665;SDS011;3369;49.906;8.598;2023-04-24T05:15:09;2.70;;;2.03;;
6665;SDS011;3369;49.906;8.598;2023-04-24T05:17:35;2.67;;;2.13;;
6665;SDS011;3369;49.906;8.598;2023-04-24T05:20:01;3.27;;;2.27;;
6665;SDS011;3369;49.906;8.598;2023-04-24T05:22:30;3.20;;;2.13;;
6665;SDS011;3369;49.906;8.598;2023-04-24T05:24:56;2.03;;;1.93;;
6665;SDS011;3369;49.906;8.598;2023-04-24T05:27:22;3.33;;;2.00;;
6665;SDS011;3369;49.906;8.598;2023-04-24T05:29:47;2.00;;;1.90;;
6665;SDS011;3369;49.906;8.598;2023-04-24T05:32:13;2.43;;;2.23;;
6665;SDS011;3369;49.906;8.598;2023-04-24T05:34:39;3.47;;;2.53;;
6665;SDS011;3369;49.906;8.598;2023-04-24T05:37:05;2.63;;;2.00;;
6665;SDS011;3369;49.906;8.598;2023-04-24T05:39:33;2.60;;;2.40;;
6665;SDS011;3369;49.906;8.598;2023-04-24T05:42:00;2.33;;;2.07;;
6665;SDS011;3369;49.906;8.598;2023-04-24T05:44:26;2.00;;;1.90;;
6665;SDS011;3369;49.906;8.598;2023-04-24T05:46:52;1.70;;;1.60;;
6665;SDS011;3369;49.906;8.598;2023-04-24T05:49:18;2.13;;;1.60;;
6665;SDS011;3369;49.906;8.598;2023-04-24T05:51:43;2.33;;;1.70;;
6665;SDS011;3369;49.906;8.598;2023-04-24T05:54:09;1.57;;;1.47;;
6665;SDS011;3369;49.906;8.598;2023-04-24T05:56:37;2.63;;;2.43;;
6665;SDS011;3369;49.906;8.598;2023-04-24T05:59:03;1.70;;;1.60;;
6665;SDS011;3369;49.906;8.598;2023-04-24T06:01:28;1.87;;;1.67;;
6665;SDS011;3369;49.906;8.598;2023-04-24T06:03:54;1.90;;;1.80;;
6665;SDS011;3369;49.906;8.598;2023-04-24T06:06:20;2.57;;;2.20;;
6665;SDS011;3369;49.906;8.598;2023-04-24T06:08:46;2.43;;;2.23;;
6665;SDS011;3369;49.906;8.598;2023-04-24T06:11:11;3.40;;;2.30;;
6665;SDS011;3369;49.906;8.598;2023-04-24T06:13:37;2.30;;;2.20;;
6665;SDS011;3369;49.906;8.598;2023-04-24T06:16:03;2.57;;;2.37;;
6665;SDS011;3369;49.906;8.598;2023-04-24T06:18:29;4.10;;;2.30;;
6665;SDS011;3369;49.906;8.598;2023-04-24T06:20:55;2.70;;;2.43;;
6665;SDS011;3369;49.906;8.598;2023-04-24T06:23:21;2.73;;;2.53;;
6665;SDS011;3369;49.906;8.598;2023-04-24T06:25:46;2.57;;;2.20;;
6665;SDS011;3369;49.906;8.598;2023-04-24T06:28:12;4.17;;;2.80;;
6665;SDS011;3369;49.906;8.598;2023-04-24T06:30:37;4.03;;;2.83;;
6665;SDS011;3369;49.906;8.598;2023-04-24T06:33:03;3.20;;;3.00;;
6665;SDS011;3369;49.906;8.598;2023-04-24T06:35:29;3.23;;;2.83;;
6665;SDS011;3369;49.906;8.598;2023-04-24T06:37:54;2.80;;;2.60;;
6665;SDS011;3369;49.906;8.598;2023-04-24T06:40:21;3.87;;;2.80;;
6665;SDS011;3369;49.906;8.598;2023-04-24T06:42:47;2.90;;;2.70;;
6665;SDS011;3369;49.906;8.598;2023-04-24T06:45:13;3.30;;;3.00;;
6665;SDS011;3369;49.906;8.598;2023-04-24T06:47:38;3.47;;;2.80;;
6665;SDS011;3369;49.906;8.598;2023-04-24T06:50:04;4.20;;;3.30;;
6665;SDS011;3369;49.906;8.598;2023-04-24T07:12:38;4.23;;;3.83;;
6665;SDS011;3369;49.906;8.598;2023-04-24T07:15:04;3.47;;;3.13;;
6665;SDS011;3369;49.906;8.598;2023-04-24T07:17:31;3.90;;;3.50;;
6665;SDS011;3369;49.906;8.598;2023-04-24T07:19:56;4.40;;;4.10;;
6665;SDS011;3369;49.906;8.598;2023-04-24T07:22:22;3.20;;;3.00;;
6665;SDS011;3369;49.906;8.598;2023-04-24T07:24:48;3.57;;;3.27;;
6665;SDS011;3369;49.906;8.598;2023-04-24T07:27:13;3.53;;;3.23;;
6665;SDS011;3369;49.906;8.598;2023-04-24T07:29:39;4.23;;;3.80;;
6665;SDS011;3369;49.906;8.598;2023-04-24T07:32:05;3.70;;;3.40;;
6665;SDS011;3369;49.906;8.598;2023-04-24T07:34:32;3.03;;;2.43;;
6665;SDS011;3369;49.906;8.598;2023-04-24T07:36:58;2.43;;;2.23;;
6665;SDS011;3369;49.906;8.598;2023-04-24T07:39:24;2.40;;;2.17;;
6665;SDS011;3369;49.906;8.598;2023-04-24T07:41:51;2.13;;;1.90;;
6665;SDS011;3369;49.906;8.598;2023-04-24T07:44:17;2.10;;;2.00;;
6665;SDS011;3369;49.906;8.598;2023-04-24T07:46:42;1.83;;;1.73;;
6665;SDS011;3369;49.906;8.598;2023-04-24T07:49:08;3.60;;;1.83;;
6665;SDS011;3369;49.906;8.598;2023-04-24T07:51:34;1.87;;;1.70;;
6665;SDS011;3369;49.906;8.598;2023-04-24T07:54:03;2.17;;;1.70;;
6665;SDS011;3369;49.906;8.598;2023-04-24T07:56:31;3.43;;;1.90;;
6665;SDS011;3369;49.906;8.598;2023-04-24T07:58:58;1.73;;;1.60;;
6665;SDS011;3369;49.906;8.598;2023-04-24T08:01:24;3.00;;;1.93;;
6665;SDS011;3369;49.906;8.598;2023-04-24T08:03:50;1.63;;;1.53;;
6665;SDS011;3369;49.906;8.598;2023-04-24T08:06:16;2.43;;;1.80;;
6665;SDS011;3369;49.906;8.598;2023-04-24T08:08:42;2.93;;;1.40;;
6665;SDS011;3369;49.906;8.598;2023-04-24T08:11:07;2.27;;;1.70;;
6665;SDS011;3369;49.906;8.598;2023-04-24T08:13:33;1.77;;;1.67;;
6665;SDS011;3369;49.906;8.598;2023-04-24T08:15:59;2.27;;;1.67;;
6665;SDS011;3369;49.906;8.598;2023-04-24T08:18:25;2.13;;;1.50;;
6665;SDS011;3369;49.906;8.598;2023-04-24T08:20:51;1.60;;;1.50;;
6665;SDS011;3369;49.906;8.598;2023-04-24T08:23:17;3.10;;;1.60;;
6665;SDS011;3369;49.906;8.598;2023-04-24T08:25:42;1.83;;;1.73;;
6665;SDS011;3369;49.906;8.598;2023-04-24T08:28:08;1.77;;;1.60;;
6665;SDS011;3369;49.906;8.598;2023-04-24T08:30:34;3.27;;;1.93;;
6665;SDS011;3369;49.906;8.598;2023-04-24T08:33:00;2.90;;;1.70;;
6665;SDS011;3369;49.906;8.598;2023-04-24T08:35:26;3.23;;;2.10;;
6665;SDS011;3369;49.906;8.598;2023-04-24T08:37:52;2.13;;;1.90;;
6665;SDS011;3369;49.906;8.598;2023-04-24T08:40:18;2.63;;;1.90;;
6665;SDS011;3369;49.906;8.598;2023-04-24T08:42:52;2.13;;;1.97;;
6665;SDS011;3369;49.906;8.598;2023-04-24T08:45:20;2.77;;;1.60;;
6665;SDS011;3369;49.906;8.598;2023-04-24T08:47:46;1.80;;;1.70;;
6665;SDS011;3369;49.906;8.598;2023-04-24T08:50:12;2.10;;;1.80;;
6665;SDS011;3369;49.906;8.598;2023-04-24T08:52:38;1.90;;;1.80;;
6665;SDS011;3369;49.906;8.598;2023-04-24T08:55:04;4.20;;;2.43;;
6665;SDS011;3369;49.906;8.598;2023-04-24T08:57:30;2.53;;;2.30;;
6665;SDS011;3369;49.906;8.598;2023-04-24T08:59:57;2.60;;;2.23;;
6665;SDS011;3369;49.906;8.598;2023-04-24T09:02:23;3.07;;;2.20;;
6665;SDS011;3369;49.906;8.598;2023-04-24T09:04:49;2.83;;;2.20;;
6665;SDS011;3369;49.906;8.598;2023-04-24T09:07:16;2.53;;;2.00;;
6665;SDS011;3369;49.906;8.598;2023-04-24T09:09:43;2.37;;;2.13;;
6665;SDS011;3369;49.906;8.598;2023-04-24T09:12:09;2.30;;;2.10;;
6665;SDS011;3369;49.906;8.598;2023-04-24T09:14:35;2.17;;;2.00;;
6665;SDS011;3369;49.906;8.598;2023-04-24T09:17:04;1.93;;;1.83;;
6665;SDS011;3369;49.906;8.598;2023-04-24T09:19:31;2.27;;;2.10;;
6665;SDS011;3369;49.906;8.598;2023-04-24T09:21:57;2.27;;;2.13;;
6665;SDS011;3369;49.906;8.598;2023-04-24T09:24:22;1.80;;;1.70;;
6665;SDS011;3369;49.906;8.598;2023-04-24T09:26:49;1.63;;;1.53;;
6665;SDS011;3369;49.906;8.598;2023-04-24T09:29:22;1.50;;;1.40;;
6665;SDS011;3369;49.906;8.598;2023-04-24T09:31:48;1.80;;;1.70;;
6665;SDS011;3369;49.906;8.598;2023-04-24T09:34:13;1.50;;;1.40;;
6665;SDS011;3369;49.906;8.598;2023-04-24T09:36:40;2.00;;;1.80;;
6665;SDS011;3369;49.906;8.598;2023-04-24T09:39:11;1.70;;;1.60;;
6665;SDS011;3369;49.906;8.598;2023-04-24T09:41:44;1.90;;;1.50;;
6665;SDS011;3369;49.906;8.598;2023-04-24T09:44:11;1.87;;;1.67;;
6665;SDS011;3369;49.906;8.598;2023-04-24T09:46:41;3.23;;;1.90;;
6665;SDS011;3369;49.906;8.598;2023-04-24T09:49:12;1.93;;;1.50;;
6665;SDS011;3369;49.906;8.598;2023-04-24T09:51:40;1.30;;;1.30;;
6665;SDS011;3369;49.906;8.598;2023-04-24T09:54:15;1.63;;;1.40;;
6665;SDS011;3369;49.906;8.598;2023-04-24T09:56:44;1.60;;;1.50;;
6665;SDS011;3369;49.906;8.598;2023-04-24T09:59:11;2.10;;;1.80;;
6665;SDS011;3369;49.906;8.598;2023-04-24T10:01:38;1.70;;;1.60;;
6665;SDS011;3369;49.906;8.598;2023-04-24T10:04:14;3.13;;;1.43;;
6665;SDS011;3369;49.906;8.598;2023-04-24T10:06:54;1.70;;;1.60;;
6665;SDS011;3369;49.906;8.598;2023-04-24T10:09:22;1.57;;;1.47;;
6665;SDS011;3369;49.906;8.598;2023-04-24T10:11:49;1.87;;;1.47;;
6665;SDS011;3369;49.906;8.598;2023-04-24T10:14:19;1.60;;;1.50;;
6665;SDS011;3369;49.906;8.598;2023-04-24T10:16:46;1.93;;;1.77;;
6665;SDS011;3369;49.906;8.598;2023-04-24T10:19:12;1.90;;;1.80;;
6665;SDS011;3369;49.906;8.598;2023-04-24T10:21:40;2.13;;;1.93;;
6665;SDS011;3369;49.906;8.598;2023-04-24T10:24:11;2.37;;;1.80;;
6665;SDS011;3369;49.906;8.598;2023-04-24T10:26:38;1.80;;;1.70;;
6665;SDS011;3369;49.906;8.598;2023-04-24T10:29:05;2.00;;;1.90;;
6665;SDS011;3369;49.906;8.598;2023-04-24T10:31:36;2.23;;;1.90;;
6665;SDS011;3369;49.906;8.598;2023-04-24T10:34:03;2.37;;;2.17;;
6665;SDS011;3369;49.906;8.598;2023-04-24T10:36:30;2.30;;;2.17;;
6665;SDS011;3369;49.906;8.598;2023-04-24T10:38:58;2.10;;;1.90;;
6665;SDS011;3369;49.906;8.598;2023-04-24T10:41:27;10.90;;;3.20;;
6665;SDS011;3369;49.906;8.598;2023-04-24T10:44:07;2.87;;;2.53;;
6665;SDS011;3369;49.906;8.598;2023-04-24T10:46:38;3.97;;;2.20;;
6665;SDS011;3369;49.906;8.598;2023-04-24T10:49:07;2.00;;;1.90;;
6665;SDS011;3369;49.906;8.598;2023-04-24T10:51:44;2.97;;;2.20;;
6665;SDS011;3369;49.906;8.598;2023-04-24T10:59:51;2.00;;;1.80;;
6665;SDS011;3369;49.906;8.598;2023-04-24T11:02:35;2.93;;;1.80;;
6665;SDS011;3369;49.906;8.598;2023-04-24T11:05:03;3.80;;;2.47;;
6665;SDS011;3369;49.906;8.598;2023-04-24T11:07:29;2.00;;;1.80;;
6665;SDS011;3369;49.906;8.598;2023-04-24T11:09:58;2.80;;;1.90;;
6665;SDS011;3369;49.906;8.598;2023-04-24T11:12:26;2.10;;;1.93;;
6665;SDS011;3369;49.906;8.598;2023-04-24T11:17:31;2.63;;;2.43;;
6665;SDS011;3369;49.906;8.598;2023-04-24T11:20:05;2.53;;;2.13;;
6665;SDS011;3369;49.906;8.598;2023-04-24T11:22:33;2.60;;;2.40;;
6665;SDS011;3369;49.906;8.598;2023-04-24T11:25:00;3.33;;;2.57;;
6665;SDS011;3369;49.906;8.598;2023-04-24T11:27:29;3.33;;;2.23;;
6665;SDS011;3369;49.906;8.598;2023-04-24T11:32:30;2.40;;;2.20;;
6665;SDS011;3369;49.906;8.598;2023-04-24T11:35:08;2.47;;;2.27;;
6665;SDS011;3369;49.906;8.598;2023-04-24T11:37:45;2.40;;;2.20;;
6665;SDS011;3369;49.906;8.598;2023-04-24T11:40:14;3.00;;;2.23;;
6665;SDS011;3369;49.906;8.598;2023-04-24T11:42:41;2.60;;;2.40;;
6665;SDS011;3369;49.906;8.598;2023-04-24T11:47:37;2.03;;;1.90;;
6665;SDS011;3369;49.906;8.598;2023-04-24T11:50:04;1.87;;;1.77;;
6665;SDS011;3369;49.906;8.598;2023-04-24T11:52:33;1.90;;;1.50;;
6665;SDS011;3369;49.906;8.598;2023-04-24T11:55:02;3.07;;;1.53;;
6665;SDS011;3369;49.906;8.598;2023-04-24T11:57:28;1.90;;;1.80;;
6665;SDS011;3369;49.906;8.598;2023-04-24T11:59:59;1.90;;;1.80;;
6665;SDS011;3369;49.906;8.598;2023-04-24T12:02:26;3.53;;;2.10;;
6665;SDS011;3369;49.906;8.598;2023-04-24T12:04:53;2.50;;;2.30;;
6665;SDS011;3369;49.906;8.598;2023-04-24T12:07:19;2.13;;;1.93;;
6665;SDS011;3369;49.906;8.598;2023-04-24T12:09:46;2.30;;;2.03;;
6665;SDS011;3369;49.906;8.598;2023-04-24T12:12:14;3.60;;;2.17;;
6665;SDS011;3369;49.906;8.598;2023-04-24T12:14:48;3.53;;;2.10;;
6665;SDS011;3369;49.906;8.598;2023-04-24T12:17:15;2.57;;;2.33;;
6665;SDS011;3369;49.906;8.598;2023-04-24T12:19:47;2.50;;;2.30;;
6665;SDS011;3369;49.906;8.598;2023-04-24T12:22:13;2.37;;;2.17;;
6665;SDS011;3369;49.906;8.598;2023-04-24T12:24:58;2.50;;;2.23;;
6665;SDS011;3369;49.906;8.598;2023-04-24T12:27:26;2.40;;;2.20;;
6665;SDS011;3369;49.906;8.598;2023-04-24T12:29:56;3.27;;;2.60;;
6665;SDS011;3369;49.906;8.598;2023-04-24T12:32:23;2.77;;;2.57;;
6665;SDS011;3369;49.906;8.598;2023-04-24T12:34:50;2.90;;;2.70;;
6665;SDS011;3369;49.906;8.598;2023-04-24T12:37:16;3.10;;;2.60;;
6665;SDS011;3369;49.906;8.598;2023-04-24T12:39:58;4.10;;;2.97;;
6665;SDS011;3369;49.906;8.598;2023-04-24T12:42:32;3.30;;;3.00;;
6665;SDS011;3369;49.906;8.598;2023-04-24T12:44:59;2.63;;;2.43;;
6665;SDS011;3369;49.906;8.598;2023-04-24T12:47:26;4.17;;;2.93;;
6665;SDS011;3369;49.906;8.598;2023-04-24T12:49:53;3.23;;;3.03;;
6665;SDS011;3369;49.906;8.598;2023-04-24T12:52:20;3.20;;;2.90;;
6665;SDS011;3369;49.906;8.598;2023-04-24T12:54:50;3.83;;;3.40;;
6665;SDS011;3369;49.906;8.598;2023-04-24T12:57:18;2.70;;;2.50;;
6665;SDS011;3369;49.906;8.598;2023-04-24T12:59:43;3.20;;;2.90;;
6665;SDS011;3369;49.906;8.598;2023-04-24T13:02:10;4.73;;;3.17;;
6665;SDS011;3369;49.906;8.598;2023-04-24T13:04:36;6.43;;;3.00;;
6665;SDS011;3369;49.906;8.598;2023-04-24T13:07:02;3.13;;;2.77;;
6665;SDS011;3369;49.906;8.598;2023-04-24T13:29:09;5.13;;;2.77;;
6665;SDS011;3369;49.906;8.598;2023-04-24T13:31:35;3.73;;;2.90;;
6665;SDS011;3369;49.906;8.598;2023-04-24T13:34:01;4.67;;;2.70;;
6665;SDS011;3369;49.906;8.598;2023-04-24T13:36:27;5.13;;;2.40;;
6665;SDS011;3369;49.906;8.598;2023-04-24T13:38:53;3.70;;;2.80;;
6665;SDS011;3369;49.906;8.598;2023-04-24T13:41:19;2.47;;;2.17;;
6665;SDS011;3369;49.906;8.598;2023-04-24T13:43:44;6.03;;;2.80;;
6665;SDS011;3369;49.906;8.598;2023-04-24T13:46:10;3.20;;;2.80;;
6665;SDS011;3369;49.906;8.598;2023-04-24T13:48:36;4.30;;;2.40;;
6665;SDS011;3369;49.906;8.598;2023-04-24T13:51:01;3.67;;;2.70;;
6665;SDS011;3369;49.906;8.598;2023-04-24T13:53:27;4.00;;;2.70;;
6665;SDS011;3369;49.906;8.598;2023-04-24T13:55:53;3.87;;;3.13;;
6665;SDS011;3369;49.906;8.598;2023-04-24T13:58:18;2.83;;;2.63;;
6665;SDS011;3369;49.906;8.598;2023-04-24T14:00:44;2.53;;;2.33;;
6665;SDS011;3369;49.906;8.598;2023-04-24T14:03:10;3.40;;;2.53;;
6665;SDS011;3369;49.906;8.598;2023-04-24T14:05:36;2.70;;;2.50;;
6665;SDS011;3369;49.906;8.598;2023-04-24T14:08:01;3.00;;;2.67;;
6665;SDS011;3369;49.906;8.598;2023-04-24T14:10:27;3.93;;;2.77;;
6665;SDS011;3369;49.906;8.598;2023-04-24T14:12:53;3.67;;;2.43;;
6665;SDS011;3369;49.906;8.598;2023-04-24T14:15:19;3.57;;;2.77;;
6665;SDS011;3369;49.906;8.598;2023-04-24T14:17:44;2.70;;;2.50;;
6665;SDS011;3369;49.906;8.598;2023-04-24T14:20:11;4.00;;;2.40;;
6665;SDS011;3369;49.906;8.598;2023-04-24T14:22:37;4.40;;;2.83;;
6665;SDS011;3369;49.906;8.598;2023-04-24T14:25:04;2.90;;;2.60;;
6665;SDS011;3369;49.906;8.598;2023-04-24T14:27:30;4.87;;;2.70;;
6665;SDS011;3369;49.906;8.598;2023-04-24T14:29:57;2.70;;;2.50;;
6665;SDS011;3369;49.906;8.598;2023-04-24T14:32:23;3.13;;;2.47;;
6665;SDS011;3369;49.906;8.598;2023-04-24T14:34:48;2.80;;;2.47;;
6665;SDS011;3369;49.906;8.598;2023-04-24T14:37:14;2.00;;;1.90;;
6665;SDS011;3369;49.906;8.598;2023-04-24T14:39:40;3.87;;;2.93;;
6665;SDS011;3369;49.906;8.598;2023-04-24T14:42:06;4.00;;;2.70;;
6665;SDS011;3369;49.906;8.598;2023-04-24T14:44:31;2.90;;;2.60;;
6665;SDS011;3369;49.906;8.598;2023-04-24T14:46:58;4.00;;;2.57;;
6665;SDS011;3369;49.906;8.598;2023-04-24T14:49:24;2.60;;;2.40;;
6665;SDS011;3369;49.906;8.598;2023-04-24T14:51:49;3.80;;;2.57;;
6665;SDS011;3369;49.906;8.598;2023-04-24T14:54:15;4.17;;;2.63;;
6665;SDS011;3369;49.906;8.598;2023-04-24T14:56:41;3.67;;;2.40;;
6665;SDS011;3369;49.906;8.598;2023-04-24T14:59:08;2.60;;;2.10;;
6665;SDS011;3369;49.906;8.598;2023-04-24T15:01:34;2.60;;;2.40;;
6665;SDS011;3369;49.906;8.598;2023-04-24T15:04:00;2.83;;;2.53;;
6665;SDS011;3369;49.906;8.598;2023-04-24T15:06:26;3.57;;;2.83;;
6665;SDS011;3369;49.906;8.598;2023-04-24T15:08:51;3.07;;;2.77;;
6665;SDS011;3369;49.906;8.598;2023-04-24T15:11:17;3.43;;;2.50;;
6665;SDS011;3369;49.906;8.598;2023-04-24T15:13:43;2.80;;;2.43;;
6665;SDS011;3369;49.906;8.598;2023-04-24T15:16:10;3.20;;;2.30;;
6665;SDS011;3369;49.906;8.598;2023-04-24T15:18:36;2.50;;;2.30;;
6665;SDS011;3369;49.906;8.598;2023-04-24T15:21:01;2.23;;;2.13;;
6665;SDS011;3369;49.906;8.598;2023-04-24T15:23:27;3.47;;;2.53;;
6665;SDS011;3369;49.906;8.598;2023-04-24T15:25:53;2.53;;;2.33;;
6665;SDS011;3369;49.906;8.598;2023-04-24T15:28:19;2.97;;;2.50;;
6665;SDS011;3369;49.906;8.598;2023-04-24T15:30:46;3.20;;;2.60;;
6665;SDS011;3369;49.906;8.598;2023-04-24T15:33:12;3.93;;;2.80;;
6665;SDS011;3369;49.906;8.598;2023-04-24T15:35:38;4.63;;;2.33;;
6665;SDS011;3369;49.906;8.598;2023-04-24T15:38:04;3.03;;;2.80;;
6665;SDS011;3369;49.906;8.598;2023-04-24T15:40:29;4.00;;;2.63;;
6665;SDS011;3369;49.906;8.598;2023-04-24T15:42:55;3.20;;;2.40;;
6665;SDS011;3369;49.906;8.598;2023-04-24T15:45:21;3.87;;;2.13;;
6665;SDS011;3369;49.906;8.598;2023-04-24T15:47:47;3.00;;;2.70;;
6665;SDS011;3369;49.906;8.598;2023-04-24T15:50:14;3.80;;;2.30;;
6665;SDS011;3369;49.906;8.598;2023-04-24T15:52:41;2.47;;;2.27;;
6665;SDS011;3369;49.906;8.598;2023-04-24T15:55:07;3.30;;;2.33;;
6665;SDS011;3369;49.906;8.598;2023-04-24T15:57:33;2.97;;;2.50;;
6665;SDS011;3369;49.906;8.598;2023-04-24T15:59:59;3.40;;;2.43;;
6665;SDS011;3369;49.906;8.598;2023-04-24T16:02:25;3.13;;;2.83;;
6665;SDS011;3369;49.906;8.598;2023-04-24T16:04:51;3.03;;;2.23;;
6665;SDS011;3369;49.906;8.598;2023-04-24T16:07:17;2.67;;;2.47;;
6665;SDS011;3369;49.906;8.598;2023-04-24T16:09:43;3.20;;;2.90;;
6665;SDS011;3369;49.906;8.598;2023-04-24T16:12:09;2.90;;;2.70;;
6665;SDS011;3369;49.906;8.598;2023-04-24T16:14:36;3.17;;;2.70;;
6665;SDS011;3369;49.906;8.598;2023-04-24T16:17:02;3.70;;;3.40;;
6665;SDS011;3369;49.906;8.598;2023-04-24T16:19:29;2.83;;;2.60;;
6665;SDS011;3369;49.906;8.598;2023-04-24T16:21:55;3.67;;;2.80;;
6665;SDS011;3369;49.906;8.598;2023-04-24T16:24:22;3.40;;;2.40;;